createdAt,value
2019-05-05T00:01:16.142Z,99335.83
2019-05-05T00:03:50.960Z,99330.65
2019-05-05T00:06:21.542Z,99349.11
2019-05-05T00:08:51.830Z,99346.75
2019-05-05T00:11:31.030Z,99346.05
2019-05-05T00:14:04.745Z,99353.02
2019-05-05T00:16:49.228Z,99353.14
2019-05-05T00:19:32.197Z,99358.54
2019-05-05T00:21:51.873Z,99360.69
2019-05-05T00:24:24.370Z,99370.27
2019-05-05T00:26:55.340Z,99369.03
2019-05-05T00:29:25.608Z,99368.45
2019-05-05T00:31:55.899Z,99383.81
2019-05-05T00:34:27.660Z,99382.52
2019-05-05T00:36:58.214Z,99379.88
2019-05-05T00:39:28.857Z,99383.27
2019-05-05T00:41:59.159Z,99365.20
2019-05-05T00:44:29.381Z,99386.73
2019-05-05T00:47:06.876Z,99377.06
2019-05-05T00:49:46.463Z,99378.99
2019-05-05T00:52:11.244Z,99379.77
2019-05-05T00:54:41.828Z,99392.22
2019-05-05T00:57:12.459Z,99389.55
2019-05-05T00:59:45.086Z,99403.59
2019-05-05T01:02:19.839Z,99413.53
2019-05-05T01:04:50.217Z,99437.98
2019-05-05T01:07:24.675Z,99426.61
2019-05-05T01:09:54.922Z,99429.13
2019-05-05T01:12:25.657Z,99427.54
2019-05-05T01:14:58.990Z,99432.05
2019-05-05T01:17:29.655Z,99423.76
2019-05-05T01:20:04.064Z,99430.47
2019-05-05T01:22:34.075Z,99430.59
2019-05-05T01:25:06.843Z,99438.91
2019-05-05T01:27:37.139Z,99453.47
2019-05-05T01:30:17.069Z,99456.26
2019-05-05T01:32:56.062Z,99452.16
2019-05-05T01:35:27.019Z,99455.80
2019-05-05T01:38:08.384Z,99464.55
2019-05-05T01:40:46.536Z,99467.48
2019-05-05T01:43:16.815Z,99475.48
2019-05-05T01:45:48.620Z,99469.92
2019-05-05T01:48:18.916Z,99466.92
2019-05-05T01:50:49.500Z,99467.37
2019-05-05T01:53:19.798Z,99466.57
2019-05-05T01:55:50.812Z,99476.20
2019-05-05T01:58:24.243Z,99470.64
2019-05-05T02:00:54.646Z,99471.49
2019-05-05T02:03:24.883Z,99470.42
2019-05-05T02:05:55.653Z,99479.26
2019-05-05T02:08:26.230Z,99501.56
2019-05-05T02:10:56.888Z,99504.56
2019-05-05T02:13:27.518Z,99509.81
2019-05-05T02:15:58.163Z,99513.27
2019-05-05T02:18:28.522Z,99517.52
2019-05-05T02:21:07.627Z,99512.77
2019-05-05T02:23:39.021Z,99515.33
2019-05-05T02:26:09.606Z,99513.05
2019-05-05T02:28:41.532Z,99519.05
2019-05-05T02:31:25.710Z,99519.45
2019-05-05T02:33:57.017Z,99520.34
2019-05-05T02:36:28.425Z,99528.72
2019-05-05T02:38:59.059Z,99533.42
2019-05-05T02:41:31.537Z,99530.20
2019-05-05T02:44:05.112Z,99525.17
2019-05-05T02:46:40.791Z,99528.80
2019-05-05T02:49:14.919Z,99540.58
2019-05-05T02:51:47.381Z,99542.93
2019-05-05T02:54:20.808Z,99538.63
2019-05-05T02:56:54.181Z,99534.64
2019-05-05T02:59:29.510Z,99535.59
2019-05-05T03:02:04.342Z,99529.94
2019-05-05T03:04:35.151Z,99545.73
2019-05-05T03:07:10.468Z,99548.30
2019-05-05T03:09:39.599Z,99554.38
2019-05-05T03:12:11.287Z,99555.68
2019-05-05T03:14:44.971Z,99564.69
2019-05-05T03:17:16.095Z,99563.88
2019-05-05T03:19:48.555Z,99565.41
2019-05-05T03:22:20.002Z,99572.84
2019-05-05T03:24:51.063Z,99589.97
2019-05-05T03:27:23.706Z,99578.33
2019-05-05T03:29:54.989Z,99592.89
2019-05-05T03:32:26.653Z,99585.18
2019-05-05T03:34:57.570Z,99584.48
2019-05-05T03:37:28.258Z,99588.55
2019-05-05T03:40:01.492Z,99605.39
2019-05-05T03:42:37.397Z,99606.77
2019-05-05T03:45:14.572Z,99607.66
2019-05-05T03:47:45.807Z,99612.66
2019-05-05T03:50:16.493Z,99620.81
2019-05-05T03:52:46.966Z,99625.16
2019-05-05T03:55:17.173Z,99638.59
2019-05-05T03:57:48.038Z,99629.38
2019-05-05T04:00:45.007Z,99635.05
2019-05-05T04:03:15.642Z,99647.95
2019-05-05T04:05:47.956Z,99648.16
2019-05-05T04:08:19.074Z,99644.75
2019-05-05T04:10:49.872Z,99646.17
2019-05-05T04:13:20.892Z,99650.19
2019-05-05T04:16:09.975Z,99657.78
2019-05-05T04:18:48.250Z,99665.25
2019-05-05T04:21:30.406Z,99671.90
2019-05-05T04:23:50.453Z,99669.75
2019-05-05T04:26:21.048Z,99682.38
2019-05-05T04:28:51.330Z,99691.33
2019-05-05T04:31:24.153Z,99698.12
2019-05-05T04:33:54.424Z,99702.42
2019-05-05T04:36:25.601Z,99702.58
2019-05-05T04:38:55.886Z,99707.88
2019-05-05T04:41:26.439Z,99717.79
2019-05-05T04:43:56.727Z,99724.24
2019-05-05T04:46:26.924Z,99728.13
2019-05-05T04:49:03.569Z,99741.37
2019-05-05T04:51:46.631Z,99742.83
2019-05-05T04:54:09.613Z,99745.42
2019-05-05T04:56:40.274Z,99746.80
2019-05-05T04:59:10.549Z,99747.46
2019-05-05T05:01:41.603Z,99751.09
2019-05-05T05:04:16.470Z,99757.85
2019-05-05T05:06:48.736Z,99759.38
2019-05-05T05:09:19.022Z,99757.52
2019-05-05T05:11:49.598Z,99764.31
2019-05-05T05:14:20.258Z,99759.89
2019-05-05T05:16:54.098Z,99751.54
2019-05-05T05:19:24.348Z,99756.33
2019-05-05T05:22:01.146Z,99757.37
2019-05-05T05:24:27.199Z,99757.87
2019-05-05T05:26:57.924Z,99760.86
2019-05-05T05:29:28.194Z,99770.36
2019-05-05T05:31:58.425Z,99778.89
2019-05-05T05:34:28.981Z,99783.88
2019-05-05T05:36:59.265Z,99794.00
2019-05-05T05:39:31.135Z,99805.45
2019-05-05T05:42:01.683Z,99806.93
2019-05-05T05:44:50.120Z,99813.18
2019-05-05T05:47:25.095Z,99816.77
2019-05-05T05:50:03.969Z,99822.07
2019-05-05T05:52:35.040Z,99823.67
2019-05-05T05:55:07.285Z,99822.72
2019-05-05T05:57:38.758Z,99830.27
2019-05-05T06:00:10.518Z,99834.56
2019-05-05T06:02:40.851Z,99829.12
2019-05-05T06:05:11.712Z,99829.19
2019-05-05T06:07:44.310Z,99830.79
2019-05-05T06:10:22.157Z,99838.14
2019-05-05T06:12:46.654Z,99840.37
2019-05-05T06:15:17.619Z,99840.37
2019-05-05T06:17:47.836Z,99841.69
2019-05-05T06:20:18.062Z,99850.30
2019-05-05T06:22:48.267Z,99858.22
2019-05-05T06:25:18.473Z,99854.78
2019-05-05T06:27:48.748Z,99860.48
2019-05-05T06:30:19.162Z,99868.61
2019-05-05T06:32:49.889Z,99867.55
2019-05-05T06:35:20.540Z,99872.72
2019-05-05T06:37:54.426Z,99874.69
2019-05-05T06:40:35.963Z,99881.64
2019-05-05T06:43:07.813Z,99877.25
2019-05-05T06:45:40.075Z,99884.89
2019-05-05T06:48:10.358Z,99880.09
2019-05-05T06:50:40.551Z,99880.36
2019-05-05T06:53:10.773Z,99886.34
2019-05-05T06:55:40.998Z,99892.01
2019-05-05T06:58:11.211Z,99894.39
2019-05-05T07:00:43.950Z,99899.73
2019-05-05T07:03:14.035Z,99899.27
2019-05-05T07:05:44.933Z,99904.61
2019-05-05T07:08:15.619Z,99909.01
2019-05-05T07:10:46.280Z,99912.92
2019-05-05T07:13:16.892Z,99914.28
2019-05-05T07:15:47.190Z,99913.98
2019-05-05T07:18:17.456Z,99923.49
2019-05-05T07:20:49.032Z,99924.78
2019-05-05T07:23:19.350Z,99931.66
2019-05-05T07:25:49.999Z,99930.01
2019-05-05T07:28:20.753Z,99930.18
2019-05-05T07:30:51.093Z,99933.94
2019-05-05T07:33:21.251Z,99934.25
2019-05-05T07:36:09.355Z,99938.20
2019-05-05T07:38:39.570Z,99940.12
2019-05-05T07:41:09.800Z,99949.55
2019-05-05T07:43:40.013Z,99946.20
2019-05-05T07:46:10.386Z,99947.58
2019-05-05T07:48:40.598Z,99956.32
2019-05-05T07:51:11.169Z,99977.95
2019-05-05T07:53:41.435Z,99972.98
2019-05-05T07:56:14.284Z,99971.73
2019-05-05T07:58:44.604Z,99972.31
2019-05-05T08:01:15.245Z,99969.50
2019-05-05T08:03:45.568Z,99972.66
2019-05-05T08:06:15.815Z,99976.50
2019-05-05T08:08:46.490Z,99980.47
2019-05-05T08:11:16.745Z,99986.64
2019-05-05T08:13:46.953Z,99971.42
2019-05-05T08:16:24.860Z,99983.47
2019-05-05T08:18:56.503Z,99992.41
2019-05-05T08:21:27.408Z,99994.83
2019-05-05T08:23:59.314Z,99996.62
2019-05-05T08:26:33.563Z,99995.11
2019-05-05T08:29:13.578Z,99991.37
2019-05-05T08:31:45.155Z,99992.56
2019-05-05T08:34:15.366Z,99988.47
2019-05-05T08:36:45.583Z,99989.66
2019-05-05T08:39:17.292Z,99984.22
2019-05-05T08:41:48.052Z,99992.64
2019-05-05T08:44:18.711Z,99995.02
2019-05-05T08:46:49.440Z,99991.63
2019-05-05T08:49:19.733Z,99994.68
2019-05-05T08:51:54.695Z,99995.20
2019-05-05T08:54:25.512Z,100003.48
2019-05-05T08:56:56.174Z,99997.61
2019-05-05T08:59:26.808Z,100005.33
2019-05-05T09:01:58.003Z,100001.64
2019-05-05T09:04:28.391Z,100008.08
2019-05-05T09:06:58.625Z,100017.00
2019-05-05T09:09:29.519Z,100004.70
2019-05-05T09:11:59.869Z,100014.27
2019-05-05T09:14:30.515Z,100015.05
2019-05-05T09:17:00.859Z,100026.45
2019-05-05T09:19:31.079Z,100018.34
2019-05-05T09:22:01.447Z,100019.36
2019-05-05T09:24:34.149Z,100015.26
2019-05-05T09:27:07.540Z,100012.89
2019-05-05T09:29:39.515Z,100009.92
2019-05-05T09:32:10.149Z,100011.99
2019-05-05T09:34:40.525Z,100003.27
2019-05-05T09:37:10.796Z,100006.30
2019-05-05T09:39:41.010Z,100016.66
2019-05-05T09:42:11.275Z,99994.47
2019-05-05T09:44:43.650Z,100021.09
2019-05-05T09:47:13.871Z,100020.30
2019-05-05T09:49:44.758Z,100007.47
2019-05-05T09:52:15.532Z,99993.55
2019-05-05T09:54:45.840Z,100006.52
2019-05-05T09:57:16.548Z,100006.10
2019-05-05T09:59:46.858Z,100010.55
2019-05-05T10:02:17.525Z,100016.73
2019-05-05T10:04:47.844Z,100030.30
2019-05-05T10:07:18.116Z,100034.87
2019-05-05T10:09:48.327Z,100022.14
2019-05-05T10:12:18.654Z,100030.11
2019-05-05T10:14:50.318Z,100040.02
2019-05-05T10:17:21.111Z,100033.47
2019-05-05T10:19:51.503Z,100025.45
2019-05-05T10:22:23.770Z,100030.63
2019-05-05T10:25:12.019Z,100026.96
2019-05-05T10:27:47.518Z,100025.73
2019-05-05T10:30:15.690Z,100043.28
2019-05-05T10:32:46.524Z,100035.41
2019-05-05T10:35:17.538Z,100027.80
2019-05-05T10:37:48.154Z,100029.92
2019-05-05T10:40:23.488Z,100032.00
2019-05-05T10:42:54.185Z,100035.02
2019-05-05T10:45:25.287Z,100035.88
2019-05-05T10:47:55.779Z,100048.80
2019-05-05T10:50:26.515Z,100046.95
2019-05-05T10:52:57.175Z,100057.50
2019-05-05T10:55:27.679Z,100059.27
2019-05-05T10:57:57.951Z,100064.09
2019-05-05T11:00:44.268Z,100071.54
2019-05-05T11:03:15.477Z,100073.23
2019-05-05T11:05:46.918Z,100070.61
2019-05-05T11:08:17.568Z,100073.62
2019-05-05T11:10:47.782Z,100081.77
2019-05-05T11:13:18.188Z,100076.44
2019-05-05T11:15:48.462Z,100084.18
2019-05-05T11:18:18.747Z,100085.00
2019-05-05T11:20:49.242Z,100079.20
2019-05-05T11:23:19.481Z,100080.30
2019-05-05T11:25:49.716Z,100082.23
2019-05-05T11:28:20.225Z,100079.92
2019-05-05T11:30:50.443Z,100082.56
2019-05-05T11:33:38.607Z,100093.41
2019-05-05T11:36:13.623Z,100081.77
2019-05-05T11:38:44.652Z,100101.80
2019-05-05T11:41:15.629Z,100099.80
2019-05-05T11:43:46.279Z,100100.53
2019-05-05T11:46:16.603Z,100100.67
2019-05-05T11:48:46.901Z,100101.30
2019-05-05T11:51:17.549Z,100099.11
2019-05-05T11:53:47.773Z,100100.52
2019-05-05T11:56:18.099Z,100105.95
2019-05-05T11:58:49.755Z,100098.01
2019-05-05T12:01:20.056Z,100091.63
2019-05-05T12:03:50.353Z,100094.37
2019-05-05T12:06:20.584Z,100108.30
2019-05-05T12:08:50.807Z,100104.16
2019-05-05T12:11:21.113Z,100105.47
2019-05-05T12:13:51.905Z,100111.36
2019-05-05T12:16:34.495Z,100105.23
2019-05-05T12:19:06.322Z,100102.80
2019-05-05T12:21:36.637Z,100098.43
2019-05-05T12:24:08.864Z,100088.36
2019-05-05T12:26:46.878Z,100108.80
2019-05-05T12:29:17.819Z,100099.11
2019-05-05T12:31:49.215Z,100104.71
2019-05-05T12:34:19.514Z,100098.34
2019-05-05T12:36:49.731Z,100096.08
2019-05-05T12:39:19.969Z,100090.48
2019-05-05T12:41:50.580Z,100090.48
2019-05-05T12:44:23.632Z,100092.68
2019-05-05T12:47:01.289Z,100103.47
2019-05-05T12:49:33.821Z,100082.62
2019-05-05T12:52:04.762Z,100087.80
2019-05-05T12:54:35.455Z,100088.95
2019-05-05T12:57:06.104Z,100094.97
2019-05-05T12:59:36.393Z,100091.52
2019-05-05T13:02:07.149Z,100087.17
2019-05-05T13:04:37.729Z,100094.16
2019-05-05T13:07:08.478Z,100094.06
2019-05-05T13:09:40.277Z,100093.45
2019-05-05T13:12:12.105Z,100103.16
2019-05-05T13:14:43.870Z,100084.55
2019-05-05T13:17:14.559Z,100085.52
2019-05-05T13:19:52.790Z,100090.31
2019-05-05T13:22:33.681Z,100104.94
2019-05-05T13:25:25.317Z,100111.13
2019-05-05T13:27:57.384Z,100099.50
2019-05-05T13:30:27.972Z,100102.70
2019-05-05T13:32:58.808Z,100107.72
2019-05-05T13:35:29.136Z,100105.63
2019-05-05T13:37:59.793Z,100096.93
2019-05-05T13:40:30.087Z,100075.98
2019-05-05T13:43:00.301Z,100099.38
2019-05-05T13:45:34.309Z,100086.53
2019-05-05T13:48:05.811Z,100086.04
2019-05-05T13:50:36.389Z,100079.77
2019-05-05T13:53:06.913Z,100077.81
2019-05-05T13:55:37.151Z,100088.14
2019-05-05T13:58:08.854Z,100090.05
2019-05-05T14:00:39.658Z,100088.02
2019-05-05T14:03:10.391Z,100084.75
2019-05-05T14:05:41.057Z,100086.94
2019-05-05T14:08:11.653Z,100093.52
2019-05-05T14:10:42.222Z,100092.73
2019-05-05T14:13:15.108Z,100094.30
2019-05-05T14:15:46.233Z,100083.02
2019-05-05T14:18:16.705Z,100084.25
2019-05-05T14:20:47.073Z,100083.27
2019-05-05T14:23:18.011Z,100093.11
2019-05-05T14:25:48.380Z,100101.98
2019-05-05T14:28:18.614Z,100102.75
2019-05-05T14:30:50.548Z,100103.60
2019-05-05T14:33:23.667Z,100098.77
2019-05-05T14:35:59.408Z,100089.78
2019-05-05T14:38:44.441Z,100100.07
2019-05-05T14:41:14.880Z,100087.34
2019-05-05T14:43:45.458Z,100101.91
2019-05-05T14:46:16.127Z,100092.05
2019-05-05T14:48:46.786Z,100093.56
2019-05-05T14:51:17.132Z,100089.73
2019-05-05T14:53:47.388Z,100075.88
2019-05-05T14:56:17.620Z,100084.47
2019-05-05T14:58:48.402Z,100080.97
2019-05-05T15:01:18.775Z,100091.19
2019-05-05T15:03:49.024Z,100086.66
2019-05-05T15:06:26.837Z,100095.06
2019-05-05T15:08:59.060Z,100093.55
2019-05-05T15:11:41.388Z,100098.02
2019-05-05T15:14:13.796Z,100100.77
2019-05-05T15:16:44.159Z,100101.50
2019-05-05T15:19:14.807Z,100089.84
2019-05-05T15:21:48.765Z,100097.59
2019-05-05T15:24:18.735Z,100096.55
2019-05-05T15:26:52.251Z,100103.95
2019-05-05T15:29:21.025Z,100095.82
2019-05-05T15:31:51.233Z,100094.61
2019-05-05T15:34:21.478Z,100091.59
2019-05-05T15:36:51.689Z,100086.62
2019-05-05T15:39:21.932Z,100097.50
2019-05-05T15:41:54.324Z,100100.45
2019-05-05T15:44:24.706Z,100091.87
2019-05-05T15:46:57.670Z,100090.03
2019-05-05T15:49:27.278Z,100081.24
2019-05-05T15:51:57.570Z,100087.67
2019-05-05T15:54:28.123Z,100098.55
2019-05-05T15:57:05.539Z,100095.73
2019-05-05T15:59:30.355Z,100093.57
2019-05-05T16:02:00.741Z,100088.52
2019-05-05T16:04:30.956Z,100087.14
2019-05-05T16:07:01.227Z,100087.54
2019-05-05T16:09:31.524Z,100089.31
2019-05-05T16:12:03.769Z,100090.48
2019-05-05T16:14:35.991Z,100093.24
2019-05-05T16:17:13.644Z,100086.88
2019-05-05T16:20:00.922Z,100079.54
2019-05-05T16:22:35.882Z,100082.88
2019-05-05T16:25:11.211Z,100075.55
2019-05-05T16:27:44.648Z,100078.72
2019-05-05T16:30:17.981Z,100075.61
2019-05-05T16:32:48.634Z,100072.00
2019-05-05T16:35:19.242Z,100064.39
2019-05-05T16:37:49.461Z,100067.20
2019-05-05T16:40:23.133Z,100081.09
2019-05-05T16:42:54.352Z,100075.84
2019-05-05T16:45:25.338Z,100074.00
2019-05-05T16:47:55.918Z,100070.32
2019-05-05T16:50:26.685Z,100076.95
2019-05-05T16:53:05.825Z,100073.05
2019-05-05T16:55:44.878Z,100083.09
2019-05-05T16:58:15.552Z,100081.52
2019-05-05T17:00:45.758Z,100077.31
2019-05-05T17:03:16.051Z,100076.45
2019-05-05T17:05:46.812Z,100083.57
2019-05-05T17:08:17.353Z,100080.96
2019-05-05T17:10:47.687Z,100083.06
2019-05-05T17:13:24.162Z,100093.88
2019-05-05T17:16:03.963Z,100090.47
2019-05-05T17:18:41.652Z,100086.20
2019-05-05T17:21:19.631Z,100099.34
2019-05-05T17:23:50.219Z,100095.30
2019-05-05T17:26:20.522Z,100095.88
2019-05-05T17:28:50.745Z,100097.75
2019-05-05T17:31:21.013Z,100106.39
2019-05-05T17:33:53.447Z,100101.30
2019-05-05T17:36:24.748Z,100099.82
2019-05-05T17:38:57.164Z,100095.61
2019-05-05T17:41:45.611Z,100097.42
2019-05-05T17:44:24.935Z,100103.89
2019-05-05T17:46:59.372Z,100110.72
2019-05-05T17:49:33.694Z,100105.44
2019-05-05T17:52:08.642Z,100108.63
2019-05-05T17:54:40.492Z,100105.63
2019-05-05T17:57:11.736Z,100106.81
2019-05-05T17:59:44.100Z,100110.93
2019-05-05T18:02:14.762Z,100113.53
2019-05-05T18:04:45.963Z,100114.31
2019-05-05T18:07:24.094Z,100121.38
2019-05-05T18:09:56.351Z,100117.03
2019-05-05T18:12:28.283Z,100113.39
2019-05-05T18:15:00.617Z,100121.00
2019-05-05T18:17:31.443Z,100122.44
2019-05-05T18:20:04.310Z,100117.17
2019-05-05T18:22:34.439Z,100125.50
2019-05-05T18:25:06.245Z,100129.39
2019-05-05T18:27:37.001Z,100127.37
2019-05-05T18:30:08.268Z,100123.52
2019-05-05T18:32:38.939Z,100122.44
2019-05-05T18:35:10.019Z,100134.05
2019-05-05T18:37:40.793Z,100132.14
2019-05-05T18:40:11.713Z,100128.96
2019-05-05T18:42:41.994Z,100134.97
2019-05-05T18:45:14.724Z,100131.38
2019-05-05T18:47:45.127Z,100141.23
2019-05-05T18:50:16.031Z,100142.77
2019-05-05T18:52:47.283Z,100144.17
2019-05-05T18:55:18.350Z,100144.09
2019-05-05T18:57:48.659Z,100139.68
2019-05-05T19:00:20.717Z,100140.30
2019-05-05T19:03:01.083Z,100145.64
2019-05-05T19:05:45.759Z,100148.03
2019-05-05T19:08:20.099Z,100149.02
2019-05-05T19:10:50.711Z,100160.45
2019-05-05T19:13:21.552Z,100156.26
2019-05-05T19:15:53.781Z,100159.46
2019-05-05T19:18:24.476Z,100163.08
2019-05-05T19:20:59.496Z,100167.92
2019-05-05T19:23:30.348Z,100163.76
2019-05-05T19:26:01.056Z,100173.39
2019-05-05T19:28:43.798Z,100166.13
2019-05-05T19:31:04.292Z,100170.85
2019-05-05T19:33:35.163Z,100167.54
2019-05-05T19:36:06.230Z,100167.84
2019-05-05T19:38:36.598Z,100169.25
2019-05-05T19:41:06.822Z,100170.20
2019-05-05T19:43:38.709Z,100176.39
2019-05-05T19:46:10.923Z,100180.88
2019-05-05T19:48:41.549Z,100171.98
2019-05-05T19:51:14.203Z,100169.84
2019-05-05T19:53:45.066Z,100180.92
2019-05-05T19:56:15.956Z,100173.71
2019-05-05T19:58:58.396Z,100171.22
2019-05-05T20:01:31.586Z,100169.71
2019-05-05T20:03:51.069Z,100175.81
2019-05-05T20:06:23.609Z,100169.78
2019-05-05T20:08:53.781Z,100175.05
2019-05-05T20:11:24.707Z,100172.05
2019-05-05T20:14:06.628Z,100164.56
2019-05-05T20:16:31.657Z,100165.89
2019-05-05T20:19:04.190Z,100172.91
2019-05-05T20:21:34.694Z,100167.84
2019-05-05T20:24:05.041Z,100177.48
2019-05-05T20:26:35.670Z,100189.99
2019-05-05T20:29:13.920Z,100198.94
2019-05-05T20:31:38.284Z,100191.20
2019-05-05T20:34:24.304Z,100190.13
2019-05-05T20:37:08.706Z,100194.06
2019-05-05T20:39:39.244Z,100191.25
2019-05-05T20:42:10.358Z,100194.46
2019-05-05T20:44:41.105Z,100198.27
2019-05-05T20:47:11.863Z,100187.98
2019-05-05T20:49:44.376Z,100186.22
2019-05-05T20:52:15.054Z,100194.48
2019-05-05T20:54:45.864Z,100185.47
2019-05-05T20:57:16.626Z,100182.21
2019-05-05T20:59:48.370Z,100179.11
2019-05-05T21:02:19.020Z,100182.96
2019-05-05T21:04:49.630Z,100175.55
2019-05-05T21:07:23.507Z,100186.56
2019-05-05T21:09:52.465Z,100182.80
2019-05-05T21:12:25.811Z,100191.47
2019-05-05T21:14:55.172Z,100199.61
2019-05-05T21:17:25.497Z,100193.55
2019-05-05T21:19:55.751Z,100199.07
2019-05-05T21:22:27.724Z,100198.59
2019-05-05T21:24:59.147Z,100193.08
2019-05-05T21:27:29.848Z,100198.33
2019-05-05T21:30:00.239Z,100200.95
2019-05-05T21:32:34.030Z,100206.70
2019-05-05T21:35:06.083Z,100207.55
2019-05-05T21:37:36.383Z,100202.96
2019-05-05T21:40:07.101Z,100202.78
2019-05-05T21:42:37.323Z,100200.19
2019-05-05T21:45:07.755Z,100202.78
2019-05-05T21:47:38.053Z,100200.28
2019-05-05T21:50:10.341Z,100206.33
2019-05-05T21:52:42.707Z,100192.20
2019-05-05T21:55:20.622Z,100196.23
2019-05-05T21:57:55.290Z,100196.33
2019-05-05T22:00:44.991Z,100207.08
2019-05-05T22:03:17.752Z,100197.31
2019-05-05T22:05:48.027Z,100199.84
2019-05-05T22:08:18.350Z,100211.86
2019-05-05T22:10:48.585Z,100203.36
2019-05-05T22:13:18.823Z,100209.88
2019-05-05T22:15:49.043Z,100210.73
2019-05-05T22:18:19.486Z,100205.66
2019-05-05T22:21:09.295Z,100209.41
2019-05-05T22:23:39.527Z,100198.67
2019-05-05T22:26:10.928Z,100207.39
2019-05-05T22:28:41.216Z,100198.44
2019-05-05T22:31:11.382Z,100210.97
2019-05-05T22:33:41.958Z,100208.05
2019-05-05T22:36:14.080Z,100209.00
2019-05-05T22:38:44.702Z,100212.12
2019-05-05T22:41:15.921Z,100208.71
2019-05-05T22:43:46.745Z,100211.30
2019-05-05T22:46:17.072Z,100205.80
2019-05-05T22:48:47.343Z,100200.24
2019-05-05T22:51:17.684Z,100204.13
2019-05-05T22:53:48.090Z,100200.59
2019-05-05T22:56:18.923Z,100206.66
2019-05-05T22:58:49.636Z,100204.15
2019-05-05T23:01:20.172Z,100207.73
2019-05-05T23:03:55.237Z,100200.89
2019-05-05T23:06:30.520Z,100203.96
2019-05-05T23:09:00.853Z,100207.00
2019-05-05T23:11:33.107Z,100200.63
2019-05-05T23:14:21.564Z,100206.31
2019-05-05T23:16:54.128Z,100206.34
2019-05-05T23:19:26.385Z,100209.39
2019-05-05T23:22:16.516Z,100206.39
2019-05-05T23:24:48.408Z,100209.01
2019-05-05T23:27:36.378Z,100216.77
2019-05-05T23:30:09.810Z,100209.87
2019-05-05T23:32:41.222Z,100207.80
2019-05-05T23:35:11.491Z,100206.10
2019-05-05T23:37:42.253Z,100209.13
2019-05-05T23:40:14.407Z,100208.29
2019-05-05T23:42:45.012Z,100208.73
2019-05-05T23:45:15.646Z,100207.02
2019-05-05T23:47:46.025Z,100216.50
2019-05-05T23:50:16.766Z,100210.95
2019-05-05T23:52:47.490Z,100216.11
2019-05-05T23:55:18.156Z,100213.53
2019-05-05T23:57:49.915Z,100213.53
